Time;durP1;ratioP1;P1;durP2;ratioP2;P2;SDS_P1;SDS_P2;PMS_P1;PMS_P2;Temp;Humidity;BMP_temperature;BMP_pressure;BME280_temperature;BME280_humidity;BME280_pressure;Samples;Min_cycle;Max_cycle;Signal;HPM_P1;HPM_P2
2021/04/21 00:09:06;;;;;;;17.30;10.80;;;;;;;6.20;85.47;100201.81;20819111;28;20507;-72
2021/04/21 00:19:10;;;;;;;16.65;10.30;;;;;;;6.10;86.42;100200.50;20823370;28;20092;-71
2021/04/21 00:29:14;;;;;;;17.10;10.52;;;;;;;6.06;86.18;100191.97;20819405;28;20041;-71
2021/04/21 00:39:18;;;;;;;17.10;10.20;;;;;;;5.78;86.48;100183.53;20814123;28;20502;-70
2021/04/21 00:49:35;;;;;;;18.65;11.23;;;;;;;5.49;88.05;100174.22;20827150;28;20083;-70
2021/04/21 01:00:12;;;;;;;17.30;10.63;;;;;;;5.40;89.79;100179.75;20823947;28;20081;-71
2021/04/21 01:10:15;;;;;;;15.93;9.95;;;;;;;5.42;89.68;100171.03;20735771;28;20056;-71
2021/04/21 01:20:19;;;;;;;16.45;9.70;;;;;;;5.34;88.79;100178.22;20856928;28;20389;-70
2021/04/21 01:30:23;;;;;;;18.90;12.27;;;;;;;5.02;90.05;100182.00;20854316;28;20112;-70
2021/04/21 01:40:36;;;;;;;18.70;11.38;;;;;;;5.00;90.84;100185.53;20850754;28;20041;-71
2021/04/21 01:50:38;;;;;;;19.65;11.20;;;;;;;4.72;91.67;100180.47;20852810;28;20045;-70
2021/04/21 02:00:48;;;;;;;18.80;11.52;;;;;;;4.63;92.59;100175.56;20848409;28;20100;-70
2021/04/21 02:11:30;;;;;;;19.73;12.65;;;;;;;4.63;93.77;100191.97;20837484;28;20084;-71
2021/04/21 02:21:44;;;;;;;19.48;11.70;;;;;;;4.79;94.33;100192.31;20851100;28;20045;-70
2021/04/21 02:32:15;;;;;;;20.23;12.23;;;;;;;4.93;92.94;100191.81;20871844;28;20443;-71
2021/04/21 02:42:26;;;;;;;20.60;11.50;;;;;;;4.86;92.78;100175.66;20873467;28;20522;-70
2021/04/21 02:52:45;;;;;;;24.70;13.98;;;;;;;4.81;93.12;100172.38;20866532;28;20080;-71
2021/04/21 03:02:57;;;;;;;24.63;12.52;;;;;;;4.43;94.59;100183.16;20876453;28;20049;-70
2021/04/21 03:13:19;;;;;;;25.40;13.90;;;;;;;4.36;96.09;100181.69;20868469;23;20567;-68
2021/04/21 03:23:22;;;;;;;21.05;12.55;;;;;;;4.23;95.54;100183.78;20924036;28;20041;-68
2021/04/21 03:33:38;;;;;;;24.63;13.90;;;;;;;4.01;96.50;100182.78;20936014;28;20044;-68
2021/04/21 03:43:42;;;;;;;23.70;13.15;;;;;;;3.75;98.08;100174.09;20950507;28;20099;-67
2021/04/21 03:53:44;;;;;;;24.08;13.65;;;;;;;3.82;98.48;100175.56;20938033;28;20041;-68
2021/04/21 04:03:51;;;;;;;23.65;13.85;;;;;;;3.76;98.59;100168.00;20947801;28;20052;-68
2021/04/21 04:13:56;;;;;;;24.90;14.88;;;;;;;3.76;99.43;100161.97;20932174;28;20048;-68
2021/04/21 04:24:00;;;;;;;23.00;14.05;;;;;;;3.80;96.17;100182.56;20947123;28;20048;-68
2021/04/21 04:34:04;;;;;;;24.27;14.23;;;;;;;3.62;98.53;100188.25;20927763;28;20072;-68
2021/04/21 04:44:06;;;;;;;25.35;14.73;;;;;;;3.48;98.23;100202.50;20938964;28;20094;-69
2021/04/21 04:54:09;;;;;;;29.80;16.90;;;;;;;3.66;99.08;100204.53;20958709;28;20040;-68
2021/04/21 05:04:14;;;;;;;25.30;15.27;;;;;;;3.88;97.16;100223.72;20955662;28;20048;-68
2021/04/21 05:14:17;;;;;;;25.77;15.30;;;;;;;4.14;96.60;100226.38;20948948;28;20036;-68
2021/04/21 05:24:21;;;;;;;24.05;13.52;;;;;;;4.41;94.74;100232.47;20943146;28;20303;-68
2021/04/21 05:34:59;;;;;;;24.92;14.35;;;;;;;4.76;93.81;100240.81;20948355;28;20049;-68
2021/04/21 05:45:19;;;;;;;24.85;14.88;;;;;;;5.08;93.69;100249.22;20945887;28;20063;-68
2021/04/21 05:55:49;;;;;;;29.27;16.50;;;;;;;5.46;94.41;100247.03;20963355;28;20082;-68
2021/04/21 06:05:51;;;;;;;28.85;17.75;;;;;;;5.91;92.77;100250.56;20956752;28;20045;-68
2021/04/21 06:15:52;;;;;;;27.83;17.00;;;;;;;6.32;90.35;100261.13;20962256;28;20048;-68
2021/04/21 06:26:03;;;;;;;28.52;16.33;;;;;;;6.57;89.25;100263.59;20957060;28;20041;-68
2021/04/21 06:36:05;;;;;;;27.95;15.93;;;;;;;6.94;87.45;100265.56;20931870;28;20041;-68
2021/04/21 06:46:10;;;;;;;29.55;17.90;;;;;;;7.29;86.02;100278.78;20965217;28;20099;-69
2021/04/21 06:56:11;;;;;;;;;;;;;;;7.67;83.81;100279.72;20919505;28;20420;-66
2021/04/21 07:06:13;;;;;;;24.23;15.95;;;;;;;7.94;84.14;100279.41;20909509;28;19980;-67
2021/04/21 07:16:20;;;;;;;24.95;15.50;;;;;;;8.20;82.91;100279.06;20916486;28;20131;-69
2021/04/21 07:26:33;;;;;;;26.35;16.85;;;;;;;8.64;81.20;100279.56;20908706;28;20044;-66
2021/04/21 07:36:47;;;;;;;25.77;15.90;;;;;;;8.96;78.38;100283.25;20922827;28;20049;-67
2021/04/21 07:46:52;;;;;;;30.80;17.70;;;;;;;9.57;76.50;100282.75;20966945;28;20048;-67
2021/04/21 07:56:56;;;;;;;28.92;17.05;;;;;;;9.85;76.03;100291.66;20992390;28;20087;-67
2021/04/21 08:06:59;;;;;;;28.60;17.63;;;;;;;10.18;75.12;100296.91;20958144;28;20072;-66
2021/04/21 08:17:00;;;;;;;28.60;17.15;;;;;;;10.53;74.87;100300.19;20956015;28;20040;-67
2021/04/21 08:27:01;;;;;;;34.50;17.90;;;;;;;10.65;72.30;100291.66;20982276;28;20047;-67
2021/04/21 08:37:03;;;;;;;27.45;18.05;;;;;;;11.32;71.26;100294.81;20915117;28;20052;-67
2021/04/21 08:47:04;;;;;;;28.38;17.83;;;;;;;11.91;67.47;100297.31;20871577;28;20045;-67
2021/04/21 08:57:05;;;;;;;29.75;17.58;;;;;;;12.53;63.76;100296.94;20891035;28;20069;-67
2021/04/21 09:07:06;;;;;;;29.10;17.75;;;;;;;12.81;61.73;100308.19;20950813;28;20052;-67
2021/04/21 09:17:07;;;;;;;26.48;15.98;;;;;;;13.18;60.35;100297.94;20922025;28;20083;-68
2021/04/21 09:27:34;;;;;;;24.25;14.35;;;;;;;13.78;58.27;100294.72;20943819;28;20041;-68
2021/04/21 09:37:37;;;;;;;26.48;15.05;;;;;;;14.22;56.29;100286.38;20922097;28;20067;-68
2021/04/21 09:47:38;;;;;;;22.60;14.00;;;;;;;14.65;56.55;100282.34;20912777;28;20045;-68
2021/04/21 09:57:39;;;;;;;22.90;13.88;;;;;;;15.04;56.26;100272.44;20929927;28;20122;-68
2021/04/21 10:07:40;;;;;;;26.50;14.23;;;;;;;15.24;51.61;100274.41;20925592;28;20037;-69
2021/04/21 10:17:43;;;;;;;23.42;12.48;;;;;;;15.19;49.19;100266.84;20930640;28;20096;-68
2021/04/21 10:27:44;;;;;;;24.38;12.90;;;;;;;15.62;47.52;100250.44;20955894;28;20072;-68
2021/04/21 10:37:46;;;;;;;21.00;13.15;;;;;;;16.27;48.33;100250.50;20948963;28;20044;-69
2021/04/21 10:47:52;;;;;;;21.58;10.63;;;;;;;16.35;43.42;100237.53;20955209;28;20048;-69
2021/04/21 10:58:12;;;;;;;16.25;8.80;;;;;;;16.73;43.02;100231.78;20948500;28;20048;-68
2021/04/21 11:08:26;;;;;;;15.57;10.00;;;;;;;16.66;42.26;100220.03;20965705;28;20504;-68
2021/04/21 11:18:32;;;;;;;17.85;10.18;;;;;;;16.73;41.86;100215.94;20945776;28;20052;-68
2021/04/21 11:29:10;;;;;;;17.27;10.30;;;;;;;17.26;39.64;100214.09;20942066;28;20447;-68
2021/04/21 11:39:11;;;;;;;17.15;10.57;;;;;;;17.55;39.52;100208.94;20916102;28;20044;-68
2021/04/21 11:49:12;;;;;;;16.02;9.48;;;;;;;17.38;40.23;100198.97;20950265;28;20542;-68
2021/04/21 11:59:13;;;;;;;15.60;9.90;;;;;;;17.97;37.66;100180.59;20881188;28;20037;-68
2021/04/21 12:09:14;;;;;;;15.70;8.38;;;;;;;18.13;36.89;100177.41;20978244;28;20052;-68
2021/04/21 12:19:16;;;;;;;13.95;8.23;;;;;;;17.78;37.23;100170.75;20921836;28;20419;-68
2021/04/21 12:29:19;;;;;;;16.38;10.02;;;;;;;17.91;40.16;100168.72;20948756;28;20052;-67
2021/04/21 12:39:22;;;;;;;14.95;9.02;;;;;;;17.19;41.92;100165.31;20966047;28;20037;-67
2021/04/21 12:49:36;;;;;;;17.13;11.00;;;;;;;17.24;41.22;100159.63;20934728;28;20128;-68
2021/04/21 12:59:45;;;;;;;16.38;10.30;;;;;;;17.40;40.36;100160.00;20957306;28;20048;-69
2021/04/21 13:09:46;;;;;;;14.23;9.07;;;;;;;17.38;39.40;100143.41;20971250;28;20107;-68
2021/04/21 13:19:56;;;;;;;14.13;8.38;;;;;;;17.34;40.00;100136.72;20890771;28;20544;-68
2021/04/21 13:30:09;;;;;;;11.45;6.97;;;;;;;17.38;37.92;100136.31;20901166;28;20443;-68
2021/04/21 13:40:14;;;;;;;12.55;7.40;;;;;;;17.33;36.97;100135.03;20969310;28;20049;-68
2021/04/21 13:50:16;;;;;;;;;;;;;;;17.84;37.14;100125.19;20924322;28;20049;-68
2021/04/21 14:00:18;;;;;;;11.35;6.15;;;;;;;18.31;36.64;100112.16;20934676;28;19926;-68
2021/04/21 14:10:19;;;;;;;9.80;6.00;;;;;;;18.17;35.69;100105.47;20994925;28;20040;-68
2021/04/21 14:20:21;;;;;;;9.68;5.93;;;;;;;18.53;34.34;100100.44;20969063;28;20049;-68
2021/04/21 14:30:22;;;;;;;13.25;6.43;;;;;;;18.08;34.84;100102.81;20957804;28;20052;-68
2021/04/21 14:40:24;;;;;;;9.80;5.93;;;;;;;17.84;34.71;100088.13;20825452;28;20501;-69
2021/04/21 14:50:25;;;;;;;12.85;7.53;;;;;;;18.23;35.16;100091.66;20831072;28;20045;-68
2021/04/21 15:00:26;;;;;;;12.05;6.57;;;;;;;18.21;34.38;100074.22;20844875;28;20045;-68
2021/04/21 15:10:27;;;;;;;8.90;5.05;;;;;;;18.06;34.24;100065.88;20832999;28;20041;-68
2021/04/21 15:20:28;;;;;;;7.95;5.07;;;;;;;18.43;34.70;100076.59;20822098;28;20045;-69
2021/04/21 15:30:29;;;;;;;9.95;5.10;;;;;;;18.13;35.97;100071.44;20819357;28;20158;-68
2021/04/21 15:40:31;;;;;;;8.95;5.22;;;;;;;17.87;35.82;100076.44;20828451;28;20046;-68
2021/04/21 15:50:32;;;;;;;9.40;5.85;;;;;;;17.72;35.31;100094.53;20822783;28;20045;-69
2021/04/21 16:00:33;;;;;;;9.35;5.30;;;;;;;17.90;35.73;100082.28;20816293;28;20054;-69
2021/04/21 16:10:34;;;;;;;10.20;5.80;;;;;;;18.61;35.89;100085.53;20834860;28;20042;-69
2021/04/21 16:20:35;;;;;;;9.35;5.70;;;;;;;18.28;35.67;100085.94;20823732;28;20148;-69
2021/04/21 16:30:37;;;;;;;8.30;5.63;;;;;;;18.13;35.85;100092.66;20816713;28;20495;-69
2021/04/21 16:40:38;;;;;;;12.30;6.05;;;;;;;18.30;35.15;100099.88;20825585;28;20049;-68
2021/04/21 16:50:40;;;;;;;8.60;4.13;;;;;;;17.83;36.36;100101.50;20813755;28;20052;-68
2021/04/21 17:00:42;;;;;;;9.25;4.75;;;;;;;17.62;35.39;100101.63;20799641;28;20103;-70
2021/04/21 17:10:45;;;;;;;5.85;3.90;;;;;;;17.42;35.92;100097.22;20855880;28;20073;-70
2021/04/21 17:20:46;;;;;;;12.13;7.00;;;;;;;17.30;36.83;100103.56;20814268;28;20054;-70
2021/04/21 17:30:47;;;;;;;19.33;11.30;;;;;;;17.09;38.40;100115.03;20798842;28;20045;-70
2021/04/21 17:40:49;;;;;;;9.68;5.95;;;;;;;17.00;38.90;100113.16;20846888;28;20442;-69
2021/04/21 17:50:50;;;;;;;8.43;5.55;;;;;;;16.72;40.15;100116.47;20827653;28;20053;-69
2021/04/21 18:00:52;;;;;;;9.15;4.85;;;;;;;16.40;40.47;100121.78;20828605;28;20104;-69
2021/04/21 18:10:54;;;;;;;7.35;4.80;;;;;;;16.25;41.59;100142.34;20814848;28;20104;-69
2021/04/21 18:20:55;;;;;;;8.43;5.30;;;;;;;16.01;42.32;100152.25;20838600;28;20125;-70
2021/04/21 18:30:56;;;;;;;10.55;7.05;;;;;;;15.88;43.72;100180.63;20824918;28;20050;-69
2021/04/21 18:40:57;;;;;;;15.98;9.15;;;;;;;15.66;45.53;100192.03;20828247;28;20045;-69
2021/04/21 18:50:58;;;;;;;17.30;10.23;;;;;;;15.48;47.04;100211.06;20833465;28;20076;-68
2021/04/21 19:00:59;;;;;;;16.17;9.48;;;;;;;15.15;48.69;100217.09;20835494;28;20046;-68
2021/04/21 19:11:00;;;;;;;17.60;9.57;;;;;;;14.85;49.66;100226.38;20832217;28;20055;-69
2021/04/21 19:21:01;;;;;;;15.30;9.48;;;;;;;14.49;51.64;100243.09;20821970;28;20049;-69
2021/04/21 19:31:03;;;;;;;15.13;8.70;;;;;;;14.17;52.81;100255.06;20835913;28;20056;-69
2021/04/21 19:41:04;;;;;;;13.82;9.00;;;;;;;13.83;54.73;100261.03;20821495;28;20064;-69
2021/04/21 19:51:06;;;;;;;18.35;9.80;;;;;;;13.56;56.21;100269.88;20824443;28;20111;-69
2021/04/21 20:01:08;;;;;;;12.95;9.15;;;;;;;13.34;57.06;100274.09;20830287;28;20045;-70
2021/04/21 20:11:09;;;;;;;16.50;11.32;;;;;;;13.10;58.41;100282.66;20833322;28;20525;-69
2021/04/21 20:21:10;;;;;;;18.05;10.27;;;;;;;12.86;59.76;100287.72;20819884;28;20048;-69
2021/04/21 20:31:12;;;;;;;14.75;10.35;;;;;;;12.63;61.01;100298.03;20867339;28;20112;-68
2021/04/21 20:41:13;;;;;;;14.55;9.57;;;;;;;12.39;62.53;100303.09;20812065;28;20053;-68
2021/04/21 20:51:14;;;;;;;16.48;10.52;;;;;;;12.53;60.44;100307.44;20822299;28;20124;-68
2021/04/21 21:01:15;;;;;;;13.73;8.85;;;;;;;12.59;61.25;100309.69;20819913;28;20045;-69
2021/04/21 21:11:16;;;;;;;14.82;9.80;;;;;;;12.54;60.32;100315.25;20836763;28;20049;-69
2021/04/21 21:21:17;;;;;;;13.52;9.25;;;;;;;12.41;60.40;100320.41;20799973;28;20207;-70
2021/04/21 21:31:18;;;;;;;12.95;9.00;;;;;;;12.41;61.03;100330.06;20831209;28;20494;-69
2021/04/21 21:41:20;;;;;;;14.10;9.98;;;;;;;12.37;60.48;100339.91;20815245;28;20073;-69
2021/04/21 21:51:21;;;;;;;13.30;9.27;;;;;;;12.36;61.19;100345.25;20815159;28;20104;-69
2021/04/21 22:01:22;;;;;;;15.30;10.38;;;;;;;12.29;61.94;100350.03;20809248;28;20058;-68
2021/04/21 22:11:24;;;;;;;13.45;9.75;;;;;;;12.21;61.90;100357.56;20809980;28;20046;-69
2021/04/21 22:21:29;;;;;;;14.60;9.63;;;;;;;12.02;61.99;100361.41;20812150;28;20045;-70
2021/04/21 22:31:30;;;;;;;18.90;10.88;;;;;;;11.92;63.28;100377.69;20831601;28;20108;-69
2021/04/21 22:41:32;;;;;;;10.02;6.97;;;;;;;11.77;64.68;100391.72;20852895;28;20045;-69
2021/04/21 22:51:34;;;;;;;14.18;8.68;;;;;;;11.89;63.44;100404.09;20832178;28;20056;-69
2021/04/21 23:01:35;;;;;;;11.98;7.45;;;;;;;11.63;65.10;100406.56;20828847;28;20120;-69
2021/04/21 23:11:36;;;;;;;18.65;12.25;;;;;;;11.79;64.95;100421.31;20804704;28;20081;-69
2021/04/21 23:21:37;;;;;;;23.17;14.68;;;;;;;11.84;63.36;100424.50;20825267;28;20052;-69
2021/04/21 23:31:38;;;;;;;26.02;17.55;;;;;;;11.78;62.33;100445.88;20827052;28;20045;-69
2021/04/21 23:41:39;;;;;;;33.70;20.42;;;;;;;11.58;60.86;100443.50;20836177;28;20049;-68
2021/04/21 23:51:40;;;;;;;34.85;20.75;;;;;;;11.40;60.94;100445.41;20828605;28;20660;-69
